Terminal Aerodrome Forecast
Issued by NWS

Home | Current Version | Previous Version | Graphics & Text | Print | Product List | Glossary On
Versions: 1 2 3 4 5 6 7 8 9 10 11 12 13 14 15 16 17 18 19
000
FTUS41 KCLE 011120
TAFFDY
TAF
KFDY 011120Z 0112/0212 29006KT 5SM BR BKN008
      TEMPO 0112/0114 3SM BR BKN004
     FM011400 28008KT P6SM BKN012
      TEMPO 0114/0116 SCT012 BKN035
     FM011600 30010KT P6SM BKN050
     FM012000 30010KT P6SM SCT050
     FM020200 36002KT P6SM SKC=

USA.gov is the U.S. government's official web portal to all federal, state and local government web resources and services.